CheckWX is a tool to help pilots better visualize weather data.  It is not intended as a substitute for an official pre-flight weather briefing.

08:13:14 UTC

ESNV METAR
Vilhelmina Airport
Sweden
Current

23 mins ago

ESNV 230750Z AUTO 00000KT 9999 NCD 11/06 Q1021
Observed
Apr-23 @ 07:50 UTC
Visibility
10,000+ meters
Flight Rules
VFR
Cloud Levels
  • Clear skies
Temperature
11°C / 52°F
Dewpoint
C / 43°F
Humidity
72%
Altimeter
30.15" Hg
Pressure
1020.92 hPa
Previous

53 mins ago

ESNV 230720Z AUTO VRB01KT 9999 NCD 10/05 Q1020
Observed
Apr-23 @ 07:20 UTC
Wind
  • Variable at 1 KTS
Visibility
10,000+ meters
Flight Rules
VFR
Cloud Levels
  • Clear skies
Temperature
10°C / 50°F
Dewpoint
C / 41°F
Humidity
71%
Altimeter
30.12" Hg
Pressure
1019.92 hPa
Previous

1 hour ago

ESNV 230650Z AUTO VRB01KT 9999 NCD 08/04 Q1020
Observed
Apr-23 @ 06:50 UTC
Wind
  • Variable at 1 KTS
Visibility
10,000+ meters
Flight Rules
VFR
Cloud Levels
  • Clear skies
Temperature
C / 46°F
Dewpoint
C / 39°F
Humidity
76%
Altimeter
30.12" Hg
Pressure
1019.92 hPa